createdAt,value
2018-11-06T00:00:12.981Z,89.80
2018-11-06T00:02:41.842Z,90.30
2018-11-06T00:05:12.758Z,90.60
2018-11-06T00:07:41.759Z,90.70
2018-11-06T00:10:10.326Z,90.40
2018-11-06T00:12:39.319Z,90.70
2018-11-06T00:15:08.715Z,90.70
2018-11-06T00:17:37.823Z,90.70
2018-11-06T00:20:08.567Z,90.90
2018-11-06T00:22:37.650Z,90.80
2018-11-06T00:25:07.355Z,90.70
2018-11-06T00:27:36.136Z,90.60
2018-11-06T00:30:05.684Z,90.20
2018-11-06T00:32:34.082Z,89.30
2018-11-06T00:35:03.607Z,88.80
2018-11-06T00:37:32.795Z,88.70
2018-11-06T00:40:01.428Z,88.70
2018-11-06T00:42:29.810Z,90.70
2018-11-06T00:44:58.374Z,90.60
2018-11-06T00:47:26.775Z,90.90
2018-11-06T00:49:55.723Z,90.90
2018-11-06T00:52:24.134Z,90.90
2018-11-06T00:54:52.506Z,90.90
2018-11-06T00:57:20.866Z,90.70
2018-11-06T00:59:50.460Z,90.60
2018-11-06T01:02:19.330Z,90.40
2018-11-06T01:04:47.730Z,90.00
2018-11-06T01:07:16.445Z,89.10
2018-11-06T01:09:45.131Z,89.10
2018-11-06T01:12:13.498Z,89.80
2018-11-06T01:14:41.879Z,89.50
2018-11-06T01:17:10.524Z,89.80
2018-11-06T01:19:39.867Z,89.40
2018-11-06T01:22:08.274Z,88.40
2018-11-06T01:24:36.915Z,87.40
2018-11-06T01:27:06.058Z,87.30
2018-11-06T01:29:34.434Z,86.00
2018-11-06T01:32:03.174Z,84.80
2018-11-06T01:34:31.557Z,85.90
2018-11-06T01:37:00.164Z,85.00
2018-11-06T01:39:28.547Z,87.00
2018-11-06T01:41:56.933Z,88.60
2018-11-06T01:44:25.331Z,89.80
2018-11-06T01:46:53.710Z,90.30
2018-11-06T01:49:22.391Z,89.90
2018-11-06T01:51:51.110Z,89.90
2018-11-06T01:54:20.014Z,90.00
2018-11-06T01:56:49.114Z,89.30
2018-11-06T01:59:17.468Z,89.00
2018-11-06T02:01:46.219Z,90.00
2018-11-06T02:04:14.621Z,89.90
2018-11-06T02:06:43.031Z,89.40
2018-11-06T02:09:11.432Z,88.10
2018-11-06T02:11:39.794Z,88.60
2018-11-06T02:14:08.486Z,89.00
2018-11-06T02:16:36.874Z,89.30
2018-11-06T02:19:05.618Z,88.50
2018-11-06T02:21:34.270Z,87.60
2018-11-06T02:24:03.679Z,87.70
2018-11-06T02:26:32.306Z,86.90
2018-11-06T02:29:00.990Z,86.70
2018-11-06T02:31:29.380Z,86.30
2018-11-06T02:33:58.547Z,84.60
2018-11-06T02:36:27.188Z,85.30
2018-11-06T02:41:31.175Z,86.00
2018-11-06T02:43:59.858Z,85.90
2018-11-06T02:46:28.751Z,82.40
2018-11-06T02:48:57.129Z,84.20
2018-11-06T02:51:25.566Z,84.50
2018-11-06T02:53:54.404Z,84.60
2018-11-06T02:56:22.831Z,84.70
2018-11-06T02:58:51.215Z,84.20
2018-11-06T03:01:19.619Z,84.60
2018-11-06T03:03:48.007Z,86.60
2018-11-06T03:06:16.908Z,88.10
2018-11-06T03:08:47.074Z,88.30
2018-11-06T03:11:15.735Z,88.50
2018-11-06T03:13:44.115Z,88.90
2018-11-06T03:16:12.730Z,89.90
2018-11-06T03:18:41.114Z,90.10
2018-11-06T03:21:11.738Z,90.20
2018-11-06T03:23:41.102Z,90.20
2018-11-06T03:26:11.055Z,90.10
2018-11-06T03:28:39.787Z,89.90
2018-11-06T03:31:08.191Z,89.50
2018-11-06T03:33:36.579Z,89.50
2018-11-06T03:36:05.787Z,89.00
2018-11-06T03:38:34.195Z,88.60
2018-11-06T03:41:02.727Z,87.90
2018-11-06T03:43:31.190Z,87.00
2018-11-06T03:45:59.622Z,86.80
2018-11-06T03:48:28.550Z,86.60
2018-11-06T03:50:58.155Z,85.10
2018-11-06T03:53:27.047Z,84.10
2018-11-06T03:55:55.941Z,81.40
2018-11-06T03:58:24.666Z,84.40
2018-11-06T04:00:53.356Z,84.50
2018-11-06T04:03:21.995Z,84.20
2018-11-06T04:05:50.410Z,84.00
2018-11-06T04:08:19.710Z,85.20
2018-11-06T04:10:48.082Z,85.00
2018-11-06T04:13:16.450Z,86.60
2018-11-06T04:15:45.115Z,88.30
2018-11-06T04:18:14.115Z,88.80
2018-11-06T04:20:42.487Z,89.20
2018-11-06T04:23:11.256Z,89.60
2018-11-06T04:25:39.934Z,88.60
2018-11-06T04:28:08.337Z,88.50
2018-11-06T04:30:36.739Z,88.20
2018-11-06T04:33:05.812Z,87.90
2018-11-06T04:35:34.467Z,87.00
2018-11-06T04:38:02.875Z,85.60
2018-11-06T04:40:31.279Z,85.40
2018-11-06T04:42:59.743Z,84.80
2018-11-06T04:45:28.367Z,83.50
2018-11-06T04:47:56.719Z,84.80
2018-11-06T04:50:25.746Z,85.90
2018-11-06T04:52:54.168Z,84.50
2018-11-06T04:55:23.271Z,84.40
2018-11-06T04:57:51.682Z,84.40
2018-11-06T05:00:20.379Z,84.10
2018-11-06T05:02:48.815Z,84.20
2018-11-06T05:05:17.442Z,83.60
2018-11-06T05:07:46.387Z,83.80
2018-11-06T05:10:15.402Z,85.20
2018-11-06T05:12:44.079Z,85.50
2018-11-06T05:15:14.010Z,85.60
2018-11-06T05:17:42.414Z,86.30
2018-11-06T05:20:14.847Z,86.00
2018-11-06T05:22:44.774Z,87.00
2018-11-06T05:25:13.191Z,87.90
2018-11-06T05:27:41.842Z,87.50
2018-11-06T05:30:11.239Z,88.70
2018-11-06T05:32:40.985Z,89.20
2018-11-06T05:35:10.049Z,89.00
2018-11-06T05:37:39.419Z,89.00
2018-11-06T05:40:21.146Z,89.50
2018-11-06T05:42:49.891Z,90.10
2018-11-06T05:45:18.874Z,90.20
2018-11-06T05:47:47.518Z,90.40
2018-11-06T05:50:16.331Z,90.40
2018-11-06T05:52:45.378Z,90.50
2018-11-06T05:55:13.814Z,90.60
2018-11-06T05:57:42.215Z,90.40
2018-11-06T06:00:10.795Z,84.00
2018-11-06T06:02:39.636Z,82.30
2018-11-06T06:05:08.487Z,85.40
2018-11-06T06:07:37.191Z,87.40
2018-11-06T06:10:06.403Z,87.50
2018-11-06T06:12:35.250Z,88.30
2018-11-06T06:15:04.832Z,88.20
2018-11-06T06:17:33.483Z,88.50
2018-11-06T06:20:01.855Z,89.00
2018-11-06T06:22:30.336Z,87.50
2018-11-06T06:24:58.703Z,85.80
2018-11-06T06:27:28.252Z,86.00
2018-11-06T06:29:56.615Z,85.80
2018-11-06T06:32:25.303Z,85.70
2018-11-06T06:34:53.911Z,85.60
2018-11-06T06:37:22.412Z,86.10
2018-11-06T06:39:50.832Z,86.80
2018-11-06T06:42:19.301Z,88.40
2018-11-06T06:44:48.282Z,87.00
2018-11-06T06:47:17.099Z,85.60
2018-11-06T06:49:45.570Z,82.90
2018-11-06T06:52:14.179Z,83.80
2018-11-06T06:54:42.661Z,84.00
2018-11-06T06:57:11.081Z,84.00
2018-11-06T06:59:39.459Z,84.20
2018-11-06T07:02:08.224Z,83.50
2018-11-06T07:04:36.617Z,80.70
2018-11-06T07:07:05.192Z,80.60
2018-11-06T07:09:34.010Z,80.80
2018-11-06T07:12:02.391Z,79.50
2018-11-06T07:14:30.867Z,79.20
2018-11-06T07:16:59.234Z,78.60
2018-11-06T07:19:28.155Z,79.20
2018-11-06T07:21:56.806Z,80.20
2018-11-06T07:24:25.331Z,78.50
2018-11-06T07:26:54.129Z,82.10
2018-11-06T07:29:23.548Z,82.60
2018-11-06T07:31:52.703Z,82.60
2018-11-06T07:34:22.424Z,80.80
2018-11-06T07:36:51.595Z,82.50
2018-11-06T07:39:20.604Z,84.40
2018-11-06T07:41:49.015Z,81.80
2018-11-06T07:44:17.375Z,75.10
2018-11-06T07:46:45.926Z,76.00
2018-11-06T07:49:15.829Z,72.40
2018-11-06T07:51:44.719Z,68.00
2018-11-06T07:54:14.924Z,68.20
2018-11-06T07:56:44.163Z,61.00
2018-11-06T07:59:13.647Z,50.50
2018-11-06T08:01:42.602Z,49.50
2018-11-06T08:04:11.867Z,36.70
2018-11-06T08:06:40.204Z,20.10
2018-11-06T08:09:10.545Z,16.70
2018-11-06T08:11:40.851Z,33.40
2018-11-06T08:14:09.490Z,15.90
2018-11-06T08:16:38.132Z,15.60
2018-11-06T08:19:07.068Z,4.00
2018-11-06T08:21:36.696Z,1.00
2018-11-06T08:24:05.863Z,18.60
2018-11-06T08:26:35.194Z,16.40
2018-11-06T08:29:04.842Z,1.00
2018-11-06T08:31:34.274Z,1.00
2018-11-06T08:34:03.662Z,1.00
2018-11-06T08:36:33.194Z,1.00
2018-11-06T08:39:02.283Z,1.00
2018-11-06T08:41:31.451Z,1.00
2018-11-06T08:44:00.526Z,1.00
2018-11-06T08:46:30.132Z,1.00
2018-11-06T08:48:58.886Z,1.00
2018-11-06T08:51:27.295Z,1.00
2018-11-06T08:53:56.829Z,1.00
2018-11-06T08:56:26.903Z,99.90
2018-11-06T08:58:55.267Z,99.90
2018-11-06T09:01:23.683Z,1.00
2018-11-06T09:03:52.324Z,99.90
2018-11-06T09:06:21.042Z,99.90
2018-11-06T09:08:49.708Z,99.90
2018-11-06T09:11:18.325Z,1.00
2018-11-06T09:13:46.797Z,1.00
2018-11-06T09:16:15.238Z,99.90
2018-11-06T09:18:44.342Z,99.90
2018-11-06T09:21:12.739Z,1.00
2018-11-06T09:23:42.563Z,99.90
2018-11-06T09:26:10.914Z,99.90
2018-11-06T09:28:40.075Z,99.90
2018-11-06T09:31:09.371Z,99.90
2018-11-06T09:33:38.592Z,99.90
2018-11-06T09:36:07.964Z,1.00
2018-11-06T09:38:37.093Z,1.00
2018-11-06T09:41:05.924Z,1.00
2018-11-06T09:43:35.076Z,1.00
2018-11-06T09:46:03.492Z,1.00
2018-11-06T09:48:33.211Z,1.00
2018-11-06T09:51:01.674Z,99.90
2018-11-06T09:53:30.941Z,1.00
2018-11-06T09:56:00.026Z,1.00
2018-11-06T09:58:29.126Z,99.90
2018-11-06T10:00:57.980Z,1.00
2018-11-06T10:03:27.162Z,1.00
2018-11-06T10:05:55.583Z,99.90
2018-11-06T10:08:24.259Z,1.00
2018-11-06T10:10:53.635Z,1.00
2018-11-06T10:13:22.719Z,1.00
2018-11-06T10:15:52.267Z,1.00
2018-11-06T10:18:21.331Z,99.90
2018-11-06T10:20:49.791Z,99.90
2018-11-06T10:23:18.706Z,1.00
2018-11-06T10:25:47.089Z,1.00
2018-11-06T10:28:15.695Z,1.00
2018-11-06T10:30:44.637Z,1.00
2018-11-06T10:33:13.179Z,1.00
2018-11-06T10:35:41.787Z,1.00
2018-11-06T10:38:10.623Z,31.40
2018-11-06T10:40:39.706Z,99.90
2018-11-06T10:43:08.231Z,99.90
2018-11-06T10:45:36.919Z,99.90
2018-11-06T10:48:05.938Z,99.90
2018-11-06T10:50:34.572Z,99.90
2018-11-06T10:53:03.706Z,1.00
2018-11-06T10:55:32.684Z,99.90
2018-11-06T10:58:01.723Z,1.00
2018-11-06T11:00:35.319Z,91.00
2018-11-06T11:03:09.337Z,99.90
2018-11-06T11:05:37.727Z,32.90
2018-11-06T11:08:06.418Z,1.00
2018-11-06T11:10:35.271Z,1.00
2018-11-06T11:13:04.031Z,1.00
2018-11-06T11:15:33.930Z,1.00
2018-11-06T11:18:02.892Z,1.00
2018-11-06T11:20:31.253Z,31.70
2018-11-06T11:22:59.653Z,99.90
2018-11-06T11:25:28.035Z,94.10
2018-11-06T11:27:56.431Z,99.90
2018-11-06T11:30:24.865Z,99.90
2018-11-06T11:32:53.222Z,99.90
2018-11-06T11:35:21.627Z,99.90
2018-11-06T11:37:50.437Z,99.90
2018-11-06T11:40:19.774Z,1.00
2018-11-06T11:42:48.511Z,1.00
2018-11-06T11:45:17.522Z,99.90
2018-11-06T11:47:45.910Z,1.00
2018-11-06T11:50:15.521Z,1.00
2018-11-06T11:52:44.221Z,1.00
2018-11-06T11:55:12.676Z,99.90
2018-11-06T11:57:41.595Z,99.90
2018-11-06T12:00:12.732Z,99.90
2018-11-06T12:02:41.233Z,99.90
2018-11-06T12:05:10.723Z,99.90
2018-11-06T12:07:39.116Z,93.90
2018-11-06T12:10:10.429Z,10.00
2018-11-06T12:12:38.999Z,1.00
2018-11-06T12:15:10.954Z,1.00
2018-11-06T12:17:39.463Z,1.00
2018-11-06T12:20:07.875Z,1.00
2018-11-06T12:22:37.212Z,1.00
2018-11-06T12:25:06.662Z,99.90
2018-11-06T12:27:35.080Z,99.90
2018-11-06T12:30:05.774Z,99.90
2018-11-06T12:32:34.187Z,99.90
2018-11-06T12:35:02.594Z,59.90
2018-11-06T12:37:31.072Z,1.00
2018-11-06T12:39:59.702Z,1.00
2018-11-06T12:42:28.447Z,1.00
2018-11-06T12:44:56.943Z,1.00
2018-11-06T12:47:25.965Z,1.00
2018-11-06T12:49:55.253Z,1.00
2018-11-06T12:52:23.907Z,1.00
2018-11-06T12:54:52.407Z,1.00
2018-11-06T12:57:20.834Z,1.00
2018-11-06T12:59:49.239Z,1.00
2018-11-06T13:02:17.627Z,1.00
2018-11-06T13:04:46.306Z,1.00
2018-11-06T13:07:15.039Z,1.00
2018-11-06T13:09:43.450Z,1.00
2018-11-06T13:12:12.003Z,1.00
2018-11-06T13:14:40.438Z,1.00
2018-11-06T13:17:09.143Z,1.00
2018-11-06T13:19:37.411Z,1.00
2018-11-06T13:22:07.287Z,1.00
2018-11-06T13:24:35.985Z,1.00
2018-11-06T13:27:04.687Z,1.00
2018-11-06T13:29:33.078Z,1.00
2018-11-06T13:32:01.483Z,1.00
2018-11-06T13:34:29.915Z,1.00
2018-11-06T13:36:58.552Z,1.00
2018-11-06T13:39:27.045Z,1.00
2018-11-06T13:41:55.476Z,1.00
2018-11-06T13:44:24.774Z,1.00
2018-11-06T13:46:53.037Z,1.00
2018-11-06T13:49:22.026Z,1.00
2018-11-06T13:51:50.992Z,1.00
2018-11-06T13:54:19.346Z,1.00
2018-11-06T13:56:47.710Z,1.00
2018-11-06T13:59:16.111Z,1.00
2018-11-06T14:01:44.507Z,1.00
2018-11-06T14:04:12.899Z,1.00
2018-11-06T14:06:41.607Z,1.00
2018-11-06T14:09:11.127Z,1.00
2018-11-06T14:11:39.875Z,1.00
2018-11-06T14:14:08.411Z,1.00
2018-11-06T14:16:37.359Z,1.00
2018-11-06T14:19:06.072Z,1.00
2018-11-06T14:21:34.770Z,1.00
2018-11-06T14:24:03.199Z,1.00
2018-11-06T14:26:31.567Z,1.00
2018-11-06T14:28:59.958Z,1.00
2018-11-06T14:31:28.339Z,1.00
2018-11-06T14:33:56.998Z,1.00
2018-11-06T14:36:25.747Z,1.00
2018-11-06T14:38:54.115Z,1.00
2018-11-06T14:41:22.700Z,1.00
2018-11-06T14:43:52.083Z,1.00
2018-11-06T14:46:20.967Z,1.00
2018-11-06T14:48:49.789Z,1.00
2018-11-06T14:51:18.730Z,1.00
2018-11-06T14:53:47.180Z,1.00
2018-11-06T14:56:15.894Z,1.00
2018-11-06T14:58:44.615Z,1.00
2018-11-06T15:01:12.979Z,1.00
2018-11-06T15:03:41.368Z,1.00
2018-11-06T15:06:10.132Z,1.00
2018-11-06T15:08:38.524Z,1.00
2018-11-06T15:11:07.547Z,1.00
2018-11-06T15:13:36.427Z,1.00
2018-11-06T15:16:04.851Z,1.00
2018-11-06T15:18:33.543Z,1.00
2018-11-06T15:21:02.075Z,1.00
2018-11-06T15:23:30.633Z,1.00
2018-11-06T15:25:59.083Z,1.00
2018-11-06T15:28:27.459Z,1.00
2018-11-06T15:30:55.855Z,1.00
2018-11-06T15:33:24.247Z,1.00
2018-11-06T15:35:59.335Z,1.00
2018-11-06T15:38:27.794Z,1.00
2018-11-06T15:40:56.264Z,1.00
2018-11-06T15:43:24.602Z,1.00
2018-11-06T15:45:53.351Z,1.00
2018-11-06T15:48:21.748Z,1.00
2018-11-06T15:50:50.256Z,1.00
2018-11-06T15:53:18.607Z,1.00
2018-11-06T15:55:47.005Z,1.00
2018-11-06T15:58:15.390Z,1.00
2018-11-06T16:00:43.763Z,1.00
2018-11-06T16:03:18.987Z,1.00
2018-11-06T16:05:47.352Z,1.00
2018-11-06T16:08:16.097Z,1.00
2018-11-06T16:10:45.011Z,1.00
2018-11-06T16:13:13.386Z,1.00
2018-11-06T16:15:41.770Z,1.00
2018-11-06T16:18:10.158Z,1.00
2018-11-06T16:20:38.542Z,1.00
2018-11-06T16:23:06.931Z,1.00
2018-11-06T16:25:35.331Z,1.00
2018-11-06T16:28:03.859Z,1.00
2018-11-06T16:30:32.314Z,74.20
2018-11-06T16:33:01.034Z,1.00
2018-11-06T16:35:29.468Z,64.60
2018-11-06T16:37:57.923Z,1.00
2018-11-06T16:40:26.319Z,99.90
2018-11-06T16:42:54.739Z,99.90
2018-11-06T16:45:23.422Z,99.90
2018-11-06T16:47:52.454Z,1.00
2018-11-06T16:50:20.872Z,99.90
2018-11-06T16:52:49.538Z,1.00
2018-11-06T16:55:18.790Z,1.00
2018-11-06T16:57:47.240Z,1.00
2018-11-06T17:00:18.419Z,1.00
2018-11-06T17:02:46.910Z,1.00
2018-11-06T17:05:15.998Z,1.00
2018-11-06T17:07:45.502Z,1.00
2018-11-06T17:10:14.778Z,1.00
2018-11-06T17:12:43.226Z,1.00
2018-11-06T17:15:15.227Z,1.00
2018-11-06T17:17:44.245Z,1.00
2018-11-06T17:20:13.306Z,1.00
2018-11-06T17:22:42.034Z,1.00
2018-11-06T17:25:15.906Z,1.00
2018-11-06T17:27:44.345Z,1.10
2018-11-06T17:30:14.531Z,10.90
2018-11-06T17:32:43.250Z,12.90
2018-11-06T17:35:13.430Z,8.10
2018-11-06T17:37:42.406Z,4.80
2018-11-06T17:40:15.088Z,9.80
2018-11-06T17:42:43.962Z,13.00
2018-11-06T17:45:14.491Z,8.10
2018-11-06T17:47:43.383Z,7.00
2018-11-06T17:50:13.212Z,6.40
2018-11-06T17:52:41.603Z,6.60
2018-11-06T17:55:11.648Z,7.00
2018-11-06T17:57:40.382Z,10.50
2018-11-06T18:00:11.514Z,10.20
2018-11-06T18:02:40.452Z,13.10
2018-11-06T18:05:09.750Z,12.70
2018-11-06T18:07:38.543Z,13.90
2018-11-06T18:10:08.735Z,18.20
2018-11-06T18:12:37.195Z,16.50
2018-11-06T18:15:06.710Z,22.20
2018-11-06T18:17:35.226Z,14.70
2018-11-06T18:20:12.032Z,12.90
2018-11-06T18:22:41.847Z,15.80
2018-11-06T18:25:11.553Z,13.70
2018-11-06T18:27:40.793Z,9.30
2018-11-06T18:30:11.090Z,12.70
2018-11-06T18:32:43.837Z,19.60
2018-11-06T18:35:15.990Z,19.80
2018-11-06T18:37:49.659Z,21.90
2018-11-06T18:40:20.306Z,26.00
2018-11-06T18:42:49.807Z,31.20
2018-11-06T18:45:18.211Z,30.80
2018-11-06T18:47:46.697Z,32.30
2018-11-06T18:50:16.588Z,29.70
2018-11-06T18:52:46.803Z,28.00
2018-11-06T18:55:15.219Z,25.20
2018-11-06T18:57:44.099Z,23.80
2018-11-06T19:00:15.461Z,23.30
2018-11-06T19:02:55.559Z,23.60
2018-11-06T19:05:25.140Z,21.80
2018-11-06T19:07:53.747Z,21.80
2018-11-06T19:10:22.691Z,24.00
2018-11-06T19:12:51.337Z,25.20
2018-11-06T19:15:29.797Z,26.30
2018-11-06T19:17:58.804Z,25.10
2018-11-06T19:20:28.238Z,22.50
2018-11-06T19:22:56.950Z,20.90
2018-11-06T19:25:25.647Z,22.70
2018-11-06T19:27:54.954Z,22.10
2018-11-06T19:30:23.636Z,24.00
2018-11-06T19:32:52.119Z,26.80
2018-11-06T19:35:20.531Z,23.30
2018-11-06T19:37:48.987Z,26.10
2018-11-06T19:40:18.077Z,30.10
2018-11-06T19:42:47.524Z,33.20
2018-11-06T19:45:17.544Z,37.50
2018-11-06T19:47:46.257Z,48.00
2018-11-06T19:50:17.213Z,46.50
2018-11-06T19:52:47.350Z,50.40
2018-11-06T19:55:16.927Z,39.00
2018-11-06T19:57:45.402Z,35.80
2018-11-06T20:00:17.058Z,42.40
2018-11-06T20:02:46.675Z,55.90
2018-11-06T20:05:15.657Z,58.20
2018-11-06T20:07:44.868Z,45.50
2018-11-06T20:10:14.698Z,56.50
2018-11-06T20:12:44.072Z,65.90
2018-11-06T20:15:13.283Z,62.80
2018-11-06T20:17:42.392Z,61.70
2018-11-06T20:20:14.430Z,69.90
2018-11-06T20:22:43.979Z,70.00
2018-11-06T20:25:13.220Z,73.30
2018-11-06T20:27:42.638Z,73.90
2018-11-06T20:30:15.445Z,73.90
2018-11-06T20:32:44.178Z,72.60
2018-11-06T20:35:12.999Z,70.20
2018-11-06T20:37:41.451Z,69.10
2018-11-06T20:40:12.015Z,70.40
2018-11-06T20:42:40.871Z,66.90
2018-11-06T20:45:10.857Z,66.10
2018-11-06T20:47:39.990Z,66.10
2018-11-06T20:50:14.383Z,68.20
2018-11-06T20:52:43.171Z,67.00
2018-11-06T20:55:12.734Z,64.90
2018-11-06T20:57:41.136Z,64.60
2018-11-06T21:00:17.316Z,65.80
2018-11-06T21:02:46.067Z,65.30
2018-11-06T21:05:15.339Z,71.40
2018-11-06T21:07:44.246Z,77.40
2018-11-06T21:10:14.019Z,81.40
2018-11-06T21:12:42.697Z,81.20
2018-11-06T21:15:11.731Z,78.80
2018-11-06T21:17:40.192Z,78.30
2018-11-06T21:20:10.046Z,79.30
2018-11-06T21:22:38.633Z,77.00
2018-11-06T21:25:08.287Z,77.50
2018-11-06T21:27:37.115Z,75.30
2018-11-06T21:30:08.833Z,73.60
2018-11-06T21:32:37.238Z,70.30
2018-11-06T21:35:06.414Z,71.10
2018-11-06T21:37:35.167Z,72.80
2018-11-06T21:40:03.664Z,72.40
2018-11-06T21:42:32.790Z,72.40
2018-11-06T21:45:01.234Z,69.90
2018-11-06T21:47:29.675Z,67.40
2018-11-06T21:49:58.050Z,65.40
2018-11-06T21:52:26.416Z,65.30
2018-11-06T21:54:54.807Z,70.50
2018-11-06T21:57:23.199Z,74.30
2018-11-06T21:59:51.585Z,72.20
2018-11-06T22:02:19.967Z,78.70
2018-11-06T22:04:48.472Z,83.30
2018-11-06T22:07:16.853Z,81.80
2018-11-06T22:09:45.487Z,80.10
2018-11-06T22:12:14.774Z,79.00
2018-11-06T22:14:43.098Z,79.40
2018-11-06T22:17:12.723Z,76.90
2018-11-06T22:19:41.142Z,68.20
2018-11-06T22:22:09.875Z,75.10
2018-11-06T22:24:38.219Z,78.40
2018-11-06T22:27:06.635Z,83.50
2018-11-06T22:29:34.990Z,83.30
2018-11-06T22:32:03.396Z,84.70
2018-11-06T22:34:31.767Z,82.30
2018-11-06T22:37:00.479Z,82.30
2018-11-06T22:39:28.812Z,85.10
2018-11-06T22:41:57.226Z,85.30
2018-11-06T22:44:25.603Z,83.60
2018-11-06T22:46:53.969Z,83.30
2018-11-06T22:49:22.327Z,80.10
2018-11-06T22:51:51.687Z,82.10
2018-11-06T22:54:20.186Z,82.90
2018-11-06T22:56:48.578Z,83.10
2018-11-06T22:59:17.255Z,82.00
2018-11-06T23:01:45.675Z,81.60
2018-11-06T23:04:14.078Z,82.30
2018-11-06T23:06:42.508Z,80.30
2018-11-06T23:09:11.792Z,77.90
2018-11-06T23:11:41.760Z,75.40
2018-11-06T23:14:10.451Z,75.10
2018-11-06T23:16:38.826Z,71.30
2018-11-06T23:19:07.483Z,72.60
2018-11-06T23:21:35.854Z,71.30
2018-11-06T23:24:04.326Z,71.40
2018-11-06T23:26:32.710Z,70.00
2018-11-06T23:29:01.058Z,71.10
2018-11-06T23:31:29.601Z,69.90
2018-11-06T23:33:58.251Z,69.40
2018-11-06T23:36:26.959Z,69.20
2018-11-06T23:38:55.643Z,66.30
2018-11-06T23:41:24.036Z,70.20
2018-11-06T23:43:52.438Z,74.10
2018-11-06T23:46:21.047Z,73.00
2018-11-06T23:48:50.298Z,72.60
2018-11-06T23:51:18.895Z,73.30
2018-11-06T23:53:47.266Z,74.40
2018-11-06T23:56:15.700Z,72.30
2018-11-06T23:58:44.531Z,71.80
